createdAt,value
2023-05-05T00:00:22.443Z,139.01
2023-05-05T00:01:22.509Z,137.01
2023-05-05T00:02:22.646Z,133.29
2023-05-05T00:03:22.677Z,134.76
2023-05-05T00:04:22.734Z,131.60
2023-05-05T00:05:22.683Z,139.53
2023-05-05T00:06:22.658Z,132.24
2023-05-05T00:07:22.692Z,139.73
2023-05-05T00:08:22.802Z,132.58
2023-05-05T00:09:22.727Z,135.06
2023-05-05T00:10:22.758Z,136.26
2023-05-05T00:11:22.862Z,133.14
2023-05-05T00:12:22.857Z,133.14
2023-05-05T00:13:22.908Z,131.49
2023-05-05T00:14:22.914Z,128.36
2023-05-05T00:15:23.011Z,132.05
2023-05-05T00:16:23.185Z,137.61
2023-05-05T00:17:23.063Z,129.55
2023-05-05T00:18:23.081Z,136.67
2023-05-05T00:19:23.113Z,133.77
2023-05-05T00:20:23.124Z,135.11
2023-05-05T00:21:23.190Z,128.56
2023-05-05T00:22:23.273Z,136.52
2023-05-05T00:23:23.268Z,133.20
2023-05-05T00:24:23.307Z,132.58
2023-05-05T00:25:23.330Z,135.62
2023-05-05T00:26:23.373Z,134.47
2023-05-05T00:27:23.402Z,130.03
2023-05-05T00:28:23.440Z,126.89
2023-05-05T00:29:23.541Z,132.37
2023-05-05T00:30:23.519Z,130.03
2023-05-05T00:31:23.596Z,129.42
2023-05-05T00:32:23.570Z,128.27
2023-05-05T00:33:23.633Z,128.96
2023-05-05T00:34:23.657Z,128.99
2023-05-05T00:35:23.680Z,133.40
2023-05-05T00:36:23.716Z,127.90
2023-05-05T00:37:23.771Z,132.51
2023-05-05T00:38:23.774Z,138.81
2023-05-05T00:39:23.803Z,135.49
2023-05-05T00:40:23.829Z,129.41
2023-05-05T00:41:23.873Z,124.24
2023-05-05T00:42:23.923Z,126.67
2023-05-05T00:43:23.946Z,128.10
2023-05-05T00:44:23.953Z,130.76
2023-05-05T00:45:24.012Z,130.97
2023-05-05T00:46:24.099Z,135.42
2023-05-05T00:47:24.115Z,123.53
2023-05-05T00:48:24.134Z,130.16
2023-05-05T00:49:24.174Z,131.30
2023-05-05T00:50:24.194Z,125.84
2023-05-05T00:51:24.193Z,125.43
2023-05-05T00:52:24.260Z,128.13
2023-05-05T00:53:24.285Z,129.85
2023-05-05T00:54:24.319Z,137.02
2023-05-05T00:55:24.367Z,124.69
2023-05-05T00:56:24.403Z,122.70
2023-05-05T00:57:24.464Z,125.13
2023-05-05T00:58:24.466Z,135.40
2023-05-05T00:59:24.498Z,126.61
2023-05-05T01:00:24.506Z,131.29
2023-05-05T01:01:24.597Z,124.11
2023-05-05T01:02:24.607Z,126.29
2023-05-05T01:03:24.840Z,124.89
2023-05-05T01:04:24.614Z,125.52
2023-05-05T01:05:24.639Z,124.30
2023-05-05T01:06:24.695Z,125.44
2023-05-05T01:07:25.182Z,125.71
2023-05-05T01:08:24.764Z,129.91
2023-05-05T01:09:24.793Z,127.71
2023-05-05T01:10:25.112Z,125.77
2023-05-05T01:11:24.852Z,129.13
2023-05-05T01:12:24.894Z,128.73
2023-05-05T01:13:24.977Z,125.89
2023-05-05T01:14:24.946Z,127.28
2023-05-05T01:15:25.020Z,129.28
2023-05-05T01:16:25.060Z,125.40
2023-05-05T01:17:25.073Z,129.71
2023-05-05T01:18:25.115Z,119.22
2023-05-05T01:19:25.113Z,120.78
2023-05-05T01:20:25.166Z,122.99
2023-05-05T01:21:25.201Z,124.48
2023-05-05T01:22:25.223Z,124.74
2023-05-05T01:23:25.257Z,126.77
2023-05-05T01:24:25.301Z,127.59
2023-05-05T01:25:25.333Z,131.27
2023-05-05T01:26:25.362Z,126.86
2023-05-05T01:27:25.436Z,120.98
2023-05-05T01:28:25.451Z,121.24
2023-05-05T01:29:25.440Z,122.39
2023-05-05T01:30:25.466Z,128.78
2023-05-05T01:31:25.605Z,128.16
2023-05-05T01:32:25.577Z,126.57
2023-05-05T01:33:25.581Z,129.32
2023-05-05T01:34:25.613Z,121.96
2023-05-05T01:35:25.679Z,125.16
2023-05-05T01:36:25.693Z,126.30
2023-05-05T01:37:25.761Z,125.61
2023-05-05T01:38:25.783Z,125.44
2023-05-05T01:39:25.795Z,123.16
2023-05-05T01:40:25.822Z,123.15
2023-05-05T01:41:25.830Z,121.25
2023-05-05T01:42:25.882Z,121.80
2023-05-05T01:43:25.929Z,126.27
2023-05-05T01:44:25.936Z,122.98
2023-05-05T01:45:26.036Z,129.61
2023-05-05T01:46:26.007Z,121.97
2023-05-05T01:47:26.102Z,126.09
2023-05-05T01:48:26.076Z,124.35
2023-05-05T01:49:26.118Z,121.11
2023-05-05T01:50:26.151Z,123.73
2023-05-05T01:51:26.224Z,120.69
2023-05-05T01:52:26.223Z,121.84
2023-05-05T01:53:26.275Z,128.35
2023-05-05T01:54:26.303Z,128.55
2023-05-05T01:55:26.319Z,122.83
2023-05-05T01:56:26.366Z,127.60
2023-05-05T01:57:26.426Z,117.21
2023-05-05T01:58:26.429Z,119.69
2023-05-05T01:59:26.458Z,117.33
2023-05-05T02:00:26.504Z,123.17
2023-05-05T02:01:26.645Z,123.32
2023-05-05T02:02:26.662Z,124.37
2023-05-05T02:03:26.632Z,117.72
2023-05-05T02:04:26.675Z,124.19
2023-05-05T02:05:26.662Z,124.13
2023-05-05T02:06:26.763Z,122.28
2023-05-05T02:07:26.768Z,122.75
2023-05-05T02:08:26.788Z,121.94
2023-05-05T02:09:27.642Z,123.40
2023-05-05T02:10:26.880Z,121.20
2023-05-05T02:11:26.971Z,116.69
2023-05-05T02:12:26.962Z,118.80
2023-05-05T02:13:27.017Z,117.68
2023-05-05T02:14:27.016Z,122.68
2023-05-05T02:15:27.081Z,119.40
2023-05-05T02:16:27.094Z,125.03
2023-05-05T02:17:27.140Z,115.20
2023-05-05T02:18:27.152Z,123.12
2023-05-05T02:19:27.217Z,114.18
2023-05-05T02:20:27.243Z,122.16
2023-05-05T02:21:27.286Z,118.62
2023-05-05T02:22:27.302Z,118.82
2023-05-05T02:23:27.400Z,117.52
2023-05-05T02:24:27.381Z,112.21
2023-05-05T02:25:27.428Z,123.05
2023-05-05T02:26:27.478Z,118.38
2023-05-05T02:27:27.496Z,118.89
2023-05-05T02:28:27.557Z,116.57
2023-05-05T02:29:27.615Z,114.62
2023-05-05T02:30:27.616Z,117.46
2023-05-05T02:31:27.719Z,120.13
2023-05-05T02:32:27.730Z,117.20
2023-05-05T02:33:27.740Z,117.09
2023-05-05T02:34:27.850Z,115.15
2023-05-05T02:35:27.828Z,117.56
2023-05-05T02:36:27.892Z,119.76
2023-05-05T02:37:27.940Z,111.74
2023-05-05T02:38:27.967Z,124.87
2023-05-05T02:39:27.986Z,116.13
2023-05-05T02:40:28.046Z,113.51
2023-05-05T02:41:28.076Z,112.50
2023-05-05T02:42:28.113Z,120.84
2023-05-05T02:43:28.147Z,117.39
2023-05-05T02:44:28.181Z,118.19
2023-05-05T02:45:28.243Z,117.61
2023-05-05T02:46:28.675Z,117.79
2023-05-05T02:47:28.343Z,115.07
2023-05-05T02:48:28.375Z,106.50
2023-05-05T02:49:28.406Z,116.36
2023-05-05T02:50:28.439Z,119.94
2023-05-05T02:51:28.527Z,114.94
2023-05-05T02:52:28.493Z,118.17
2023-05-05T02:53:28.589Z,118.20
2023-05-05T02:54:28.675Z,111.23
2023-05-05T02:55:28.634Z,113.77
2023-05-05T02:56:28.645Z,118.61
2023-05-05T02:57:28.746Z,121.03
2023-05-05T02:58:28.783Z,121.78
2023-05-05T02:59:28.769Z,119.01
2023-05-05T03:00:28.819Z,118.00
2023-05-05T03:01:28.882Z,113.50
2023-05-05T03:02:29.024Z,119.15
2023-05-05T03:03:28.988Z,120.63
2023-05-05T03:04:29.009Z,114.74
2023-05-05T03:05:29.018Z,114.66
2023-05-05T03:06:29.053Z,112.11
2023-05-05T03:07:29.059Z,113.86
2023-05-05T03:08:29.130Z,114.78
2023-05-05T03:09:29.182Z,109.94
2023-05-05T03:10:29.229Z,108.90
2023-05-05T03:11:29.243Z,109.38
2023-05-05T03:12:29.286Z,119.33
2023-05-05T03:13:29.335Z,116.38
2023-05-05T03:14:32.049Z,110.94
2023-05-05T03:15:29.359Z,121.52
2023-05-05T03:16:29.443Z,117.85
2023-05-05T03:17:29.350Z,112.25
2023-05-05T03:18:29.383Z,110.41
2023-05-05T03:19:29.332Z,114.82
2023-05-05T03:20:29.345Z,111.15
2023-05-05T03:21:29.318Z,119.73
2023-05-05T03:22:29.354Z,112.33
2023-05-05T03:23:29.296Z,115.27
2023-05-05T03:24:29.320Z,112.00
2023-05-05T03:25:29.290Z,109.41
2023-05-05T03:26:29.310Z,116.88
2023-05-05T03:27:29.271Z,113.41
2023-05-05T03:28:29.308Z,114.47
2023-05-05T03:29:29.268Z,111.15
2023-05-05T03:30:29.282Z,115.39
2023-05-05T03:31:29.330Z,113.73
2023-05-05T03:32:29.321Z,111.04
2023-05-05T03:33:29.241Z,116.42
2023-05-05T03:34:29.239Z,107.27
2023-05-05T03:35:29.242Z,108.55
2023-05-05T03:36:29.575Z,114.50
2023-05-05T03:37:29.216Z,112.47
2023-05-05T03:38:29.230Z,106.83
2023-05-05T03:39:29.198Z,111.99
2023-05-05T03:40:40.458Z,114.54
2023-05-05T03:41:30.216Z,114.61
2023-05-05T03:42:29.230Z,113.99
2023-05-05T03:43:29.223Z,115.08
2023-05-05T03:44:29.192Z,108.71
2023-05-05T03:45:29.212Z,113.92
2023-05-05T03:46:29.172Z,114.17
2023-05-05T03:47:29.201Z,117.75
2023-05-05T03:48:29.151Z,117.80
2023-05-05T03:49:29.191Z,107.88
2023-05-05T03:50:29.159Z,111.76
2023-05-05T03:51:29.154Z,113.31
2023-05-05T03:52:29.165Z,113.73
2023-05-05T03:53:29.143Z,110.67
2023-05-05T03:54:29.118Z,108.53
2023-05-05T03:55:29.174Z,111.76
2023-05-05T03:56:29.200Z,116.36
2023-05-05T03:57:29.271Z,111.57
2023-05-05T03:58:29.307Z,114.46
2023-05-05T03:59:29.322Z,112.49
2023-05-05T04:00:29.364Z,114.72
2023-05-05T04:01:29.436Z,102.05
2023-05-05T04:02:29.490Z,108.57
2023-05-05T04:03:29.581Z,114.50
2023-05-05T04:04:29.599Z,110.14
2023-05-05T04:05:29.531Z,106.94
2023-05-05T04:06:29.571Z,111.34
2023-05-05T04:07:29.601Z,114.53
2023-05-05T04:08:29.630Z,107.55
2023-05-05T04:09:29.687Z,109.40
2023-05-05T04:10:29.762Z,113.81
2023-05-05T04:11:29.758Z,107.01
2023-05-05T04:12:29.879Z,113.46
2023-05-05T04:13:29.862Z,114.41
2023-05-05T04:14:29.909Z,114.90
2023-05-05T04:15:29.930Z,109.70
2023-05-05T04:16:30.088Z,104.42
2023-05-05T04:17:30.067Z,108.64
2023-05-05T04:18:30.080Z,107.10
2023-05-05T04:19:30.103Z,108.96
2023-05-05T04:20:30.135Z,109.49
2023-05-05T04:21:30.162Z,107.49
2023-05-05T04:22:30.213Z,110.70
2023-05-05T04:23:30.252Z,101.51
2023-05-05T04:24:30.301Z,108.07
2023-05-05T04:25:30.320Z,108.68
2023-05-05T04:26:30.339Z,107.35
2023-05-05T04:27:30.411Z,108.72
2023-05-05T04:28:30.486Z,105.13
2023-05-05T04:29:30.461Z,108.55
2023-05-05T04:30:30.505Z,107.72
2023-05-05T04:31:30.635Z,107.01
2023-05-05T04:32:30.616Z,104.05
2023-05-05T04:33:30.611Z,104.22
2023-05-05T04:34:30.671Z,112.91
2023-05-05T04:35:30.673Z,108.59
2023-05-05T04:36:30.741Z,110.19
2023-05-05T04:37:30.735Z,103.57
2023-05-05T04:38:30.839Z,105.66
2023-05-05T04:39:30.873Z,102.41
2023-05-05T04:40:30.895Z,103.95
2023-05-05T04:41:30.917Z,101.98
2023-05-05T04:42:30.928Z,107.72
2023-05-05T04:43:30.960Z,101.46
2023-05-05T04:44:31.003Z,101.15
2023-05-05T04:45:31.047Z,98.44
2023-05-05T04:46:31.095Z,105.59
2023-05-05T04:47:31.110Z,106.12
2023-05-05T04:48:31.141Z,106.10
2023-05-05T04:49:31.216Z,104.17
2023-05-05T04:50:31.216Z,104.74
2023-05-05T04:51:31.250Z,100.92
2023-05-05T04:52:31.391Z,99.87
2023-05-05T04:53:31.340Z,103.93
2023-05-05T04:54:31.367Z,110.38
2023-05-05T04:55:31.406Z,99.78
2023-05-05T04:56:31.445Z,102.16
2023-05-05T04:57:31.494Z,104.53
2023-05-05T04:58:31.512Z,105.09
2023-05-05T04:59:31.538Z,99.33
2023-05-05T05:00:31.595Z,105.04
2023-05-05T05:01:31.707Z,103.55
2023-05-05T05:02:31.717Z,108.58
2023-05-05T05:03:31.753Z,102.70
2023-05-05T05:04:31.719Z,96.35
2023-05-05T05:05:31.785Z,100.19
2023-05-05T05:06:31.795Z,101.84
2023-05-05T05:07:31.846Z,102.73
2023-05-05T05:08:31.881Z,106.14
2023-05-05T05:09:31.967Z,97.62
2023-05-05T05:10:31.941Z,101.32
2023-05-05T05:11:31.999Z,102.83
2023-05-05T05:12:32.084Z,103.55
2023-05-05T05:13:32.094Z,98.49
2023-05-05T05:14:32.105Z,95.09
2023-05-05T05:15:32.116Z,94.09
2023-05-05T05:16:32.198Z,99.07
2023-05-05T05:17:32.214Z,98.32
2023-05-05T05:18:32.233Z,96.84
2023-05-05T05:19:32.253Z,96.81
2023-05-05T05:20:32.299Z,100.15
2023-05-05T05:21:32.341Z,95.19
2023-05-05T05:22:32.338Z,104.73
2023-05-05T05:23:32.375Z,94.37
2023-05-05T05:24:32.505Z,98.65
2023-05-05T05:25:32.459Z,102.24
2023-05-05T05:26:32.494Z,97.98
2023-05-05T05:27:32.547Z,96.83
2023-05-05T05:28:32.583Z,99.67
2023-05-05T05:29:32.583Z,99.97
2023-05-05T05:30:32.640Z,98.22
2023-05-05T05:31:32.797Z,98.74
2023-05-05T05:32:32.725Z,100.82
2023-05-05T05:33:32.716Z,93.08
2023-05-05T05:34:32.774Z,95.70
2023-05-05T05:35:32.904Z,94.17
2023-05-05T05:36:32.913Z,91.79
2023-05-05T05:37:32.938Z,97.65
2023-05-05T05:38:33.727Z,90.52
2023-05-05T05:39:32.947Z,94.97
2023-05-05T05:40:32.945Z,103.23
2023-05-05T05:41:32.968Z,104.11
2023-05-05T05:42:33.756Z,106.12
2023-05-05T05:43:33.103Z,106.20
2023-05-05T05:44:33.078Z,116.52
2023-05-05T05:45:33.095Z,121.44
2023-05-05T05:46:33.252Z,130.54
2023-05-05T05:47:33.162Z,158.13
2023-05-05T05:48:33.114Z,158.04
2023-05-05T05:49:33.197Z,157.57
2023-05-05T05:50:33.204Z,158.56
2023-05-05T05:51:33.218Z,162.81
2023-05-05T05:52:33.242Z,166.03
2023-05-05T05:53:33.269Z,170.98
2023-05-05T05:54:33.261Z,173.46
2023-05-05T05:55:33.263Z,179.11
2023-05-05T05:56:33.337Z,183.28
2023-05-05T05:57:33.416Z,190.87
2023-05-05T05:58:33.420Z,201.40
2023-05-05T05:59:33.514Z,205.68
2023-05-05T06:00:33.578Z,212.02
2023-05-05T06:01:33.650Z,212.37
2023-05-05T06:02:33.734Z,218.19
2023-05-05T06:03:33.861Z,223.78
2023-05-05T06:04:33.898Z,229.99
2023-05-05T06:05:33.829Z,234.76
2023-05-05T06:06:34.760Z,244.16
2023-05-05T06:07:33.929Z,249.49
2023-05-05T06:08:34.236Z,250.00
2023-05-05T06:09:33.994Z,248.17
2023-05-05T06:10:34.312Z,246.92
2023-05-05T06:11:34.092Z,249.10
2023-05-05T06:12:34.121Z,248.66
2023-05-05T06:13:34.169Z,247.21
2023-05-05T06:14:34.179Z,247.16
2023-05-05T06:15:34.273Z,242.76
2023-05-05T06:16:34.365Z,234.48
2023-05-05T06:17:34.286Z,225.94
2023-05-05T06:18:34.331Z,217.16
2023-05-05T06:19:34.399Z,210.50
2023-05-05T06:20:34.419Z,203.95
2023-05-05T06:21:34.485Z,199.59
2023-05-05T06:22:34.623Z,191.05
2023-05-05T06:23:34.555Z,181.89
2023-05-05T06:24:34.592Z,177.61
2023-05-05T06:25:34.839Z,172.97
2023-05-05T06:26:34.672Z,168.96
2023-05-05T06:27:35.445Z,161.24
2023-05-05T06:28:35.281Z,157.93
2023-05-05T06:29:34.775Z,156.86
2023-05-05T06:30:34.848Z,152.34
2023-05-05T06:31:35.800Z,143.42
2023-05-05T06:32:34.958Z,144.72
2023-05-05T06:33:34.949Z,143.26
2023-05-05T06:34:35.020Z,141.35
2023-05-05T06:35:35.071Z,132.65
2023-05-05T06:36:35.113Z,125.88
2023-05-05T06:37:35.126Z,121.52
2023-05-05T06:38:35.244Z,93.47
2023-05-05T06:39:35.206Z,84.57
2023-05-05T06:40:35.263Z,82.95
2023-05-05T06:41:35.314Z,77.47
2023-05-05T06:42:35.355Z,61.16
2023-05-05T06:43:35.453Z,53.76
2023-05-05T06:44:35.474Z,43.04
2023-05-05T06:45:35.448Z,38.64
2023-05-05T06:46:35.635Z,33.63
2023-05-05T06:47:35.545Z,27.08
2023-05-05T06:48:36.407Z,25.00
2023-05-05T06:49:35.657Z,25.00
2023-05-05T06:50:35.695Z,25.00
2023-05-05T06:51:35.758Z,26.13
2023-05-05T06:52:35.764Z,26.40
2023-05-05T06:53:35.804Z,26.00
2023-05-05T06:54:35.914Z,28.37
2023-05-05T06:55:35.889Z,30.55
2023-05-05T06:56:35.945Z,27.18
2023-05-05T06:57:35.967Z,25.01
2023-05-05T06:58:35.921Z,27.55
2023-05-05T06:59:35.978Z,29.65
2023-05-05T07:00:36.008Z,27.95
2023-05-05T07:01:36.042Z,25.00
2023-05-05T07:02:36.035Z,26.51
2023-05-05T07:03:36.425Z,26.12
2023-05-05T07:04:36.107Z,27.29
2023-05-05T07:05:36.064Z,26.19
2023-05-05T07:06:36.042Z,28.01
2023-05-05T07:07:36.068Z,27.16
2023-05-05T07:08:36.080Z,28.74
2023-05-05T07:09:36.078Z,25.70
2023-05-05T07:10:36.108Z,25.17
2023-05-05T07:11:36.094Z,26.56
2023-05-05T07:12:36.114Z,25.00
2023-05-05T07:13:36.119Z,25.89
2023-05-05T07:14:36.134Z,28.39
2023-05-05T07:15:36.770Z,26.07
2023-05-05T07:16:36.254Z,28.06
2023-05-05T07:17:36.180Z,27.86
2023-05-05T07:18:36.151Z,26.32
2023-05-05T07:19:36.202Z,28.00
2023-05-05T07:20:36.476Z,25.00
2023-05-05T07:21:36.258Z,25.00
2023-05-05T07:22:36.291Z,26.94
2023-05-05T07:23:36.389Z,26.15
2023-05-05T07:24:37.397Z,26.08
2023-05-05T07:25:36.289Z,25.13
2023-05-05T07:26:36.312Z,25.74
2023-05-05T07:27:36.279Z,25.23
2023-05-05T07:28:36.803Z,24.92
2023-05-05T07:29:36.351Z,26.49
2023-05-05T07:30:36.337Z,25.11
2023-05-05T07:31:36.524Z,30.52
2023-05-05T07:32:36.388Z,36.05
2023-05-05T07:33:36.551Z,31.70
2023-05-05T07:34:36.515Z,34.88
2023-05-05T07:35:36.577Z,36.59
2023-05-05T07:36:36.764Z,42.57
2023-05-05T07:37:36.671Z,41.58
2023-05-05T07:38:36.687Z,54.51
2023-05-05T07:39:36.903Z,59.69
2023-05-05T07:40:36.821Z,67.08
2023-05-05T07:41:36.847Z,72.23
2023-05-05T07:42:36.898Z,73.47
2023-05-05T07:43:38.297Z,80.39
2023-05-05T07:44:37.018Z,83.25
2023-05-05T07:45:37.021Z,85.39
2023-05-05T07:46:37.216Z,89.69
2023-05-05T07:47:37.131Z,93.41
2023-05-05T07:48:38.815Z,93.73
2023-05-05T07:49:37.179Z,96.11
2023-05-05T07:50:37.266Z,97.58
2023-05-05T07:51:37.272Z,97.89
2023-05-05T07:52:45.086Z,101.43
2023-05-05T07:53:38.288Z,101.46
2023-05-05T07:54:37.333Z,101.66
2023-05-05T07:55:37.299Z,101.37
2023-05-05T07:56:37.265Z,103.07
2023-05-05T07:57:37.278Z,103.78
2023-05-05T07:58:37.316Z,105.64
2023-05-05T07:59:37.278Z,105.68
2023-05-05T08:00:37.234Z,106.05
2023-05-05T08:01:37.249Z,105.73
2023-05-05T08:02:37.312Z,110.05
2023-05-05T08:03:37.422Z,126.39
2023-05-05T08:04:37.245Z,131.29
2023-05-05T08:05:37.277Z,131.31
2023-05-05T08:06:37.354Z,132.78
2023-05-05T08:07:37.371Z,132.69
2023-05-05T08:08:37.522Z,135.56
2023-05-05T08:09:37.532Z,135.13
2023-05-05T08:10:37.486Z,140.14
2023-05-05T08:11:37.506Z,146.13
2023-05-05T08:12:37.543Z,152.57
2023-05-05T08:13:37.549Z,152.80
2023-05-05T08:14:37.603Z,158.81
2023-05-05T08:15:37.680Z,161.62
2023-05-05T08:16:37.684Z,162.93
2023-05-05T08:17:37.736Z,166.46
2023-05-05T08:18:37.816Z,169.42
2023-05-05T08:19:37.724Z,172.28
2023-05-05T08:20:37.748Z,176.28
2023-05-05T08:21:37.800Z,178.45
2023-05-05T08:22:37.847Z,188.99
2023-05-05T08:23:37.823Z,193.96
2023-05-05T08:24:37.962Z,203.73
2023-05-05T08:25:37.939Z,208.47
2023-05-05T08:26:37.889Z,210.96
2023-05-05T08:27:37.925Z,211.81
2023-05-05T08:28:37.920Z,207.96
2023-05-05T08:29:38.009Z,210.94
2023-05-05T08:30:38.005Z,209.82
2023-05-05T08:31:38.117Z,214.24
2023-05-05T08:32:38.124Z,211.37
2023-05-05T08:33:38.066Z,214.10
2023-05-05T08:34:38.204Z,212.11
2023-05-05T08:35:38.117Z,209.62
2023-05-05T08:36:38.159Z,214.14
2023-05-05T08:37:38.268Z,210.30
2023-05-05T08:38:38.223Z,212.34
2023-05-05T08:39:38.327Z,211.97
2023-05-05T08:40:38.383Z,213.95
2023-05-05T08:41:38.335Z,214.22
2023-05-05T08:42:39.466Z,214.65
2023-05-05T08:43:38.571Z,211.59
2023-05-05T08:44:38.849Z,210.95
2023-05-05T08:45:38.471Z,211.13
2023-05-05T08:46:38.519Z,214.28
2023-05-05T08:47:38.597Z,211.31
2023-05-05T08:48:38.577Z,213.15
2023-05-05T08:49:38.606Z,215.38
2023-05-05T08:50:38.623Z,216.06
2023-05-05T08:51:38.647Z,214.97
2023-05-05T08:52:38.744Z,214.62
2023-05-05T08:53:38.717Z,213.23
2023-05-05T08:54:38.747Z,205.36
2023-05-05T08:55:38.786Z,193.25
2023-05-05T08:56:38.853Z,195.77
2023-05-05T08:57:38.862Z,196.58
2023-05-05T08:58:38.857Z,192.80
2023-05-05T08:59:38.967Z,194.40
2023-05-05T09:00:38.897Z,194.90
2023-05-05T09:01:39.002Z,189.02
2023-05-05T09:02:38.975Z,189.01
2023-05-05T09:03:39.005Z,188.98
2023-05-05T09:04:38.973Z,187.19
2023-05-05T09:05:39.043Z,189.55
2023-05-05T09:06:39.022Z,182.65
2023-05-05T09:07:39.070Z,182.41
2023-05-05T09:08:39.074Z,184.51
2023-05-05T09:09:39.839Z,186.66
2023-05-05T09:10:39.100Z,186.79
2023-05-05T09:11:39.049Z,186.38
2023-05-05T09:12:39.350Z,186.70
2023-05-05T09:13:39.112Z,183.65
2023-05-05T09:14:39.142Z,184.37
2023-05-05T09:15:39.248Z,184.58
2023-05-05T09:16:39.261Z,184.09
2023-05-05T09:17:39.252Z,177.86
2023-05-05T09:18:39.286Z,183.76
2023-05-05T09:19:39.301Z,183.41
2023-05-05T09:20:39.285Z,183.67
2023-05-05T09:21:39.439Z,187.49
2023-05-05T09:22:39.369Z,183.86
2023-05-05T09:23:39.360Z,181.18
2023-05-05T09:24:39.861Z,183.06
2023-05-05T09:25:41.333Z,184.00
2023-05-05T09:26:39.448Z,184.61
2023-05-05T09:27:39.418Z,187.01
2023-05-05T09:28:39.537Z,186.36
2023-05-05T09:29:39.474Z,187.92
2023-05-05T09:30:39.535Z,185.87
2023-05-05T09:31:39.502Z,187.59
2023-05-05T09:32:39.880Z,187.99
2023-05-05T09:33:39.736Z,177.87
2023-05-05T09:34:39.567Z,133.29
2023-05-05T09:35:39.601Z,75.88
2023-05-05T09:36:39.665Z,93.87
2023-05-05T09:37:39.693Z,117.79
2023-05-05T09:38:39.723Z,102.60
2023-05-05T09:39:39.701Z,89.33
2023-05-05T09:40:39.773Z,93.63
2023-05-05T09:41:39.734Z,84.20
2023-05-05T09:42:39.743Z,72.30
2023-05-05T09:43:39.824Z,67.06
2023-05-05T09:44:40.418Z,70.21
2023-05-05T09:45:39.802Z,60.56
2023-05-05T09:46:39.854Z,55.75
2023-05-05T09:47:39.969Z,59.16
2023-05-05T09:48:39.863Z,62.32
2023-05-05T09:49:39.895Z,56.23
2023-05-05T09:50:39.882Z,55.73
2023-05-05T09:51:39.904Z,54.67
2023-05-05T09:52:39.949Z,50.84
2023-05-05T09:53:39.964Z,51.44
2023-05-05T09:54:39.975Z,41.04
2023-05-05T09:55:40.036Z,47.33
2023-05-05T09:56:40.058Z,42.37
2023-05-05T09:57:40.109Z,42.26
2023-05-05T09:58:40.164Z,40.65
2023-05-05T09:59:40.103Z,38.11
2023-05-05T10:00:40.140Z,40.07
2023-05-05T10:01:40.221Z,35.95
2023-05-05T10:02:40.215Z,36.48
2023-05-05T10:03:40.228Z,34.13
2023-05-05T10:04:40.366Z,34.81
2023-05-05T10:05:40.316Z,34.55
2023-05-05T10:06:40.298Z,31.70
2023-05-05T10:07:40.350Z,35.11
2023-05-05T10:08:40.336Z,33.17
2023-05-05T10:09:40.393Z,34.03
2023-05-05T10:10:40.396Z,28.90
2023-05-05T10:11:40.466Z,30.73
2023-05-05T10:12:40.587Z,31.16
2023-05-05T10:13:40.488Z,26.98
2023-05-05T10:14:40.527Z,27.04
2023-05-05T10:15:40.528Z,25.00
2023-05-05T10:16:40.720Z,28.24
2023-05-05T10:17:42.569Z,35.05
2023-05-05T10:18:41.642Z,35.17
2023-05-05T10:19:40.652Z,33.84
2023-05-05T10:20:40.620Z,32.89
2023-05-05T10:21:42.094Z,32.53
2023-05-05T10:22:40.550Z,33.78
2023-05-05T10:23:40.565Z,30.43
2023-05-05T10:24:40.596Z,31.93
2023-05-05T10:25:40.561Z,34.79
2023-05-05T10:26:40.539Z,35.39
2023-05-05T10:27:40.548Z,42.94
2023-05-05T10:28:40.853Z,33.45
2023-05-05T10:29:40.527Z,44.88
2023-05-05T10:30:40.518Z,44.65
2023-05-05T10:31:40.725Z,53.03
2023-05-05T10:32:52.925Z,63.08
2023-05-05T10:33:41.627Z,63.08
2023-05-05T10:34:40.550Z,64.32
2023-05-05T10:35:40.496Z,69.49
2023-05-05T10:36:40.480Z,82.30
2023-05-05T10:37:40.502Z,97.51
2023-05-05T10:38:40.478Z,110.38
2023-05-05T10:39:40.444Z,107.92
2023-05-05T10:40:40.483Z,118.25
2023-05-05T10:41:40.454Z,124.70
2023-05-05T10:42:40.502Z,127.16
2023-05-05T10:43:40.916Z,132.56
2023-05-05T10:44:40.885Z,140.22
2023-05-05T10:45:40.532Z,143.55
2023-05-05T10:46:40.554Z,150.25
2023-05-05T10:47:40.508Z,155.09
2023-05-05T10:48:40.463Z,158.03
2023-05-05T10:49:40.877Z,163.09
2023-05-05T10:50:40.464Z,159.85
2023-05-05T10:51:41.309Z,169.52
2023-05-05T10:52:40.494Z,170.16
2023-05-05T10:53:40.571Z,177.38
2023-05-05T10:54:40.656Z,177.15
2023-05-05T10:55:40.608Z,185.71
2023-05-05T10:56:40.651Z,188.16
2023-05-05T10:57:40.797Z,190.77
2023-05-05T10:58:58.228Z,193.79
2023-05-05T10:59:41.754Z,194.56
2023-05-05T11:00:40.771Z,196.80
2023-05-05T11:01:40.726Z,199.80
2023-05-05T11:02:40.780Z,202.94
2023-05-05T11:03:40.757Z,214.06
2023-05-05T11:04:40.941Z,157.84
2023-05-05T11:05:40.693Z,69.66
2023-05-05T11:06:40.714Z,48.95
2023-05-05T11:07:40.693Z,19.65
2023-05-05T11:08:40.701Z,55.85
2023-05-05T11:09:40.722Z,26.45
2023-05-05T11:10:40.754Z,34.06
2023-05-05T11:11:40.782Z,20.33
2023-05-05T11:12:40.773Z,42.99
2023-05-05T11:13:40.956Z,18.10
2023-05-05T11:14:40.968Z,36.15
2023-05-05T11:15:40.910Z,70.67
2023-05-05T11:16:41.028Z,89.97
2023-05-05T11:17:41.030Z,87.47
2023-05-05T11:18:40.992Z,80.11
2023-05-05T11:19:41.049Z,82.70
2023-05-05T11:20:41.113Z,83.40
2023-05-05T11:21:41.123Z,89.11
2023-05-05T11:22:41.136Z,91.76
2023-05-05T11:23:41.427Z,95.53
2023-05-05T11:24:41.245Z,97.55
2023-05-05T11:25:41.367Z,99.40
2023-05-05T11:26:41.334Z,99.09
2023-05-05T11:27:41.383Z,102.77
2023-05-05T11:28:41.467Z,109.24
2023-05-05T11:29:41.517Z,114.77
2023-05-05T11:30:41.591Z,116.85
2023-05-05T11:31:41.623Z,124.79
2023-05-05T11:32:41.624Z,126.97
2023-05-05T11:33:41.653Z,129.04
2023-05-05T11:34:41.741Z,129.17
2023-05-05T11:35:41.755Z,132.39
2023-05-05T11:36:41.876Z,134.26
2023-05-05T11:37:41.858Z,137.14
2023-05-05T11:38:41.883Z,141.57
2023-05-05T11:39:41.972Z,141.07
2023-05-05T11:40:42.016Z,146.67
2023-05-05T11:41:42.020Z,148.91
2023-05-05T11:42:42.076Z,152.83
2023-05-05T11:43:42.086Z,149.31
2023-05-05T11:44:42.088Z,155.31
2023-05-05T11:45:42.103Z,155.19
2023-05-05T11:46:42.261Z,155.32
2023-05-05T11:47:42.157Z,156.60
2023-05-05T11:48:42.165Z,159.99
2023-05-05T11:49:42.163Z,159.60
2023-05-05T11:50:42.161Z,159.84
2023-05-05T11:51:42.213Z,160.66
2023-05-05T11:52:42.188Z,161.53
2023-05-05T11:53:42.200Z,161.64
2023-05-05T11:54:42.219Z,166.01
2023-05-05T11:55:42.266Z,165.05
2023-05-05T11:56:42.266Z,166.03
2023-05-05T11:57:42.265Z,164.00
2023-05-05T11:58:42.397Z,167.85
2023-05-05T11:59:42.266Z,168.55
2023-05-05T12:00:42.287Z,169.15
2023-05-05T12:01:42.326Z,170.16
2023-05-05T12:02:42.391Z,170.50
2023-05-05T12:03:42.458Z,169.38
2023-05-05T12:04:42.362Z,172.30
2023-05-05T12:05:42.396Z,172.90
2023-05-05T12:06:42.399Z,172.81
2023-05-05T12:07:42.429Z,174.01
2023-05-05T12:08:42.537Z,173.72
2023-05-05T12:09:42.485Z,171.58
2023-05-05T12:10:42.526Z,173.64
2023-05-05T12:11:42.535Z,173.80
2023-05-05T12:12:42.566Z,174.47
2023-05-05T12:13:42.575Z,175.25
2023-05-05T12:14:42.613Z,175.60
2023-05-05T12:15:42.628Z,176.25
2023-05-05T12:16:42.672Z,176.83
2023-05-05T12:17:42.788Z,176.63
2023-05-05T12:18:42.925Z,177.94
2023-05-05T12:19:42.655Z,178.03
2023-05-05T12:20:42.702Z,177.32
2023-05-05T12:21:42.721Z,177.25
2023-05-05T12:22:42.738Z,178.06
2023-05-05T12:23:42.762Z,178.56
2023-05-05T12:24:42.851Z,178.25
2023-05-05T12:25:42.753Z,178.85
2023-05-05T12:26:42.767Z,178.08
2023-05-05T12:27:42.789Z,179.53
2023-05-05T12:28:42.820Z,178.23
2023-05-05T12:29:42.845Z,179.48
2023-05-05T12:30:42.926Z,179.18
2023-05-05T12:31:42.943Z,178.82
2023-05-05T12:32:42.959Z,180.81
2023-05-05T12:33:42.974Z,181.49
2023-05-05T12:34:42.926Z,181.74